Practice 1 - Blue
Course: Road America · 2026-09-05 08:25AM
Weather Conditions
Temp 69°F
(64–74°F range)
Temp type NORMAL
Track DRY
Precip 0.0 mm (NONE)
Humidity 97%
Wind 13 km/h
Cloud 100%
OVERALL
BY CLASS
| CLASS | POS | # | NAME | BEST LAP | GAP | INTERVAL | LAPS |
|---|---|---|---|---|---|---|---|
| GTD3 | 1 | 158 | SCOTT GILL | 2:16.455 | - | - | 7 |
| 2 | 819 | ROBERT GEE | 2:17.515 | 1.060 | 1.060 | 8 | |
| 3 | 194 | KEVIN CYR | 2:17.541 | 1.086 | 0.026 | 8 | |
| 4 | 751 | CHRIS DOOLEY | 2:18.452 | 1.997 | 0.911 | 7 | |
| 5 | 90 | NICOLE ROBICHAUD | 2:20.024 | 3.569 | 1.572 | 8 | |
| 6 | 888 | JEFF BRETON | 2:20.215 | 3.760 | 0.191 | 8 | |
| 7 | 111 | NICOLAS GIGUERE | 2:20.593 | 4.138 | 0.378 | 8 | |
| 8 | 581 | MARK COOK | 2:20.731 | 4.276 | 0.138 | 8 | |
| 9 | 747 | BRAD WEBER | 2:23.319 | 6.864 | 2.588 | 8 | |
| 10 | 22 | JOHN EDDLEMON | 2:23.963 | 7.508 | 0.644 | 8 | |
| 11 | 171 | LARRY WEXLER | 2:24.753 | 8.298 | 0.790 | 8 | |
| GTD2 | 1 | 109 | RYAN SZYJAKOWSKI | 2:19.400 | - | - | 6 |
| 2 | 60 | DAVID WELLS | 2:25.800 | 6.400 | 6.400 | 7 | |
| 3 | 14 | ARTHUR SOLTYS | 2:26.512 | 7.112 | 0.712 | 5 | |
| 4 | 62 | COLIN HAUER | 2:28.379 | 8.979 | 1.867 | 7 | |
| 5 | 221 | PIERRE PAQUET | 2:30.087 | 10.687 | 1.708 | 7 | |
| GTB1 | 1 | 9 | ANGUS ROGERS | 2:24.536 | - | - | 8 |
| 2 | 696 | MIKE ORIGER | 2:26.431 | 1.895 | 1.895 | 7 | |
| 3 | 98 | ED DUNNE | 2:26.774 | 2.238 | 0.343 | 8 | |
| 4 | 726 | RUSSEL MARTORANA | 2:27.789 | 3.253 | 1.015 | 5 | |
| 5 | 951 | ANDREW BURKE | 2:30.006 | 5.470 | 2.217 | 5 | |
| 6 | 498 | COLLIN SCHMITZ | 2:32.377 | 7.841 | 2.371 | 7 | |
| 7 | 444 | TONY CLINTON | 2:33.629 | 9.093 | 1.252 | 7 | |
| 8 | 4 | SAM MAMMANO | 2:37.997 | 13.461 | 4.368 | 7 | |
| 9 | 497 | MICHAEL SCHMITZ | 2:44.049 | 19.513 | 6.052 | 6 | |
| GT3 | 1 | 689 | ROBERT BAKER | 2:26.294 | - | - | 8 |
| 2 | 199 | BOB VAN ZANT | 2:27.043 | 0.749 | 0.749 | 8 | |
| 3 | 079 | CHARLES LEW | 2:27.502 | 1.208 | 0.459 | 8 | |
| 4 | 127 | STEVE GARRISON | 2:30.451 | 4.157 | 2.949 | 7 | |
| 5 | 447 | JON DUNSKI | 2:42.423 | 16.129 | 11.972 | 2 | |
| SP997 | 1 | 131 | WESTON JEZEK | 2:28.888 | - | - | 7 |
| SPC | 1 | 147 | WALEED CHEHADI | 2:31.713 | - | - | 5 |
| 2 | 39 | TIM LAMBIE | 2:32.055 | 0.342 | 0.342 | 6 | |
| 3 | 93 | MATT DISTEFANO | 2:32.345 | 0.632 | 0.290 | 4 | |
| 4 | 122 | MICHAEL VENABLE | 2:35.353 | 3.640 | 3.008 | 6 | |
| 5 | 556 | DOMINICK BELVEDERE | 2:35.623 | 3.910 | 0.270 | 7 | |
| 6 | 97 | IAN ROGENSKI | 2:36.098 | 4.385 | 0.475 | 6 | |
| 7 | 42 | PERRY LOWERY | 2:37.855 | 6.142 | 1.757 | 5 | |
| 8 | 19 | JASON KNUPP | 2:37.893 | 6.180 | 0.038 | 6 | |
| GT4 | 1 | 66 | CLAUDIO KAEMPF | 2:32.126 | - | - | 4 |
| 2 | 5 | PATRICK PERONNET | 2:44.085 | 11.959 | 11.959 | 7 | |
| SP996 | 1 | 517 | ALEX WILLIAMS | 2:32.341 | - | - | 7 |
Session Notes
2026-09-05 09:12AM:
Transponder
Car #719- No Transponder
Pole Position